sensor_id;sensor_type;location;lat;lon;timestamp;P1;P2;P0
61879;PMS7003;47817;52.798;27.544;2023-06-26T00:02:24;5.4;4.2;3.2
61879;PMS7003;47817;52.798;27.544;2023-06-26T00:07:22;5.8;4.4;3.4
61879;PMS7003;47817;52.798;27.544;2023-06-26T00:12:32;4.3;4;3.3
61879;PMS7003;47817;52.798;27.544;2023-06-26T00:17:24;3.4;3;2.4
61879;PMS7003;47817;52.798;27.544;2023-06-26T00:22:40;3.8;3;2.8
61879;PMS7003;47817;52.798;27.544;2023-06-26T00:27:00;4.8;3.4;3
61879;PMS7003;47817;52.798;27.544;2023-06-26T00:32:40;5.6;4.4;3.2
61879;PMS7003;47817;52.798;27.544;2023-06-26T00:37:24;4;3.8;3.2
61879;PMS7003;47817;52.798;27.544;2023-06-26T00:42:40;4.8;4.2;3.6
61879;PMS7003;47817;52.798;27.544;2023-06-26T00:47:32;5.8;4.4;3.2
61879;PMS7003;47817;52.798;27.544;2023-06-26T00:52:24;5;4.4;3.2
61879;PMS7003;47817;52.798;27.544;2023-06-26T00:56:52;5.2;4;3.2
61879;PMS7003;47817;52.798;27.544;2023-06-26T01:01:52;5;4.2;3.4
61879;PMS7003;47817;52.798;27.544;2023-06-26T01:07:40;6.3;6.3;4.8
61879;PMS7003;47817;52.798;27.544;2023-06-26T01:12:08;6;5.2;3.6
61879;PMS7003;47817;52.798;27.544;2023-06-26T01:17:22;4.8;3.8;3.4
61879;PMS7003;47817;52.798;27.544;2023-06-26T01:22:43;5.8;4.4;3.4
61879;PMS7003;47817;52.798;27.544;2023-06-26T01:27:42;5.8;4.2;3.6
61879;PMS7003;47817;52.798;27.544;2023-06-26T01:32:02;3.8;3.5;3.3
61879;PMS7003;47817;52.798;27.544;2023-06-26T01:37:08;7.8;5.4;4.4
61879;PMS7003;47817;52.798;27.544;2023-06-26T01:42:34;5.6;5;4
61879;PMS7003;47817;52.798;27.544;2023-06-26T01:46:58;4.6;4.4;3.8
61879;PMS7003;47817;52.798;27.544;2023-06-26T01:51:54;5;3.8;3.4
61879;PMS7003;47817;52.798;27.544;2023-06-26T01:56:58;7.4;5.2;4.6
61879;PMS7003;47817;52.798;27.544;2023-06-26T02:02:42;6;5;4.2
61879;PMS7003;47817;52.798;27.544;2023-06-26T02:07:08;7.4;5.4;4.2
61879;PMS7003;47817;52.798;27.544;2023-06-26T02:12:18;7;4.8;4
61879;PMS7003;47817;52.798;27.544;2023-06-26T02:17:42;6.3;5;3.8
61879;PMS7003;47817;52.798;27.544;2023-06-26T02:22:34;6;4.8;3.8
61879;PMS7003;47817;52.798;27.544;2023-06-26T02:26:52;3.8;3.8;3.4
61879;PMS7003;47817;52.798;27.544;2023-06-26T02:32:26;4.6;3.8;3.6
61879;PMS7003;47817;52.798;27.544;2023-06-26T02:37:02;4.2;4;3.4
61879;PMS7003;47817;52.798;27.544;2023-06-26T02:42:08;5.2;4.6;3.8
61879;PMS7003;47817;52.798;27.544;2023-06-26T02:47:08;5.6;4.6;3.6
61879;PMS7003;47817;52.798;27.544;2023-06-26T02:52:42;5.2;4.2;3.6
61879;PMS7003;47817;52.798;27.544;2023-06-26T02:57:24;5;5;4
61879;PMS7003;47817;52.798;27.544;2023-06-26T03:02:42;6.5;5.5;4.3
61879;PMS7003;47817;52.798;27.544;2023-06-26T03:07:08;5.6;4.8;3.6
61879;PMS7003;47817;52.798;27.544;2023-06-26T03:11:52;4.8;4;3.2
61879;PMS7003;47817;52.798;27.544;2023-06-26T03:17:02;4;4;3.2
61879;PMS7003;47817;52.798;27.544;2023-06-26T03:21:52;5.8;4.6;3.4
61879;PMS7003;47817;52.798;27.544;2023-06-26T03:27:16;7.6;6.6;6
61879;PMS7003;47817;52.798;27.544;2023-06-26T03:32:00;5;4;3.4
61879;PMS7003;47817;52.798;27.544;2023-06-26T03:37:42;4.8;4;3.5
61879;PMS7003;47817;52.798;27.544;2023-06-26T03:41:52;7;6;5
61879;PMS7003;47817;52.798;27.544;2023-06-26T03:47:02;5.8;4.6;3.4
61879;PMS7003;47817;52.798;27.544;2023-06-26T03:52:26;4.4;4.2;3.4
61879;PMS7003;47817;52.798;27.544;2023-06-26T03:57:42;3.8;3.2;2.6
61879;PMS7003;47817;52.798;27.544;2023-06-26T04:02:42;4.8;3.8;3
61879;PMS7003;47817;52.798;27.544;2023-06-26T04:07:02;3.6;2.8;2.4
61879;PMS7003;47817;52.798;27.544;2023-06-26T04:12:42;4.8;3.8;3.4
61879;PMS7003;47817;52.798;27.544;2023-06-26T04:16:52;4.6;2.8;2.8
61879;PMS7003;47817;52.798;27.544;2023-06-26T04:21:52;4;3.3;2.5
61879;PMS7003;47817;52.798;27.544;2023-06-26T04:27:26;4.8;4.4;3.6
61879;PMS7003;47817;52.798;27.544;2023-06-26T04:32:24;3.8;3;2.4
61879;PMS7003;47817;52.798;27.544;2023-06-26T04:37:34;5;3.6;3.2
61879;PMS7003;47817;52.798;27.544;2023-06-26T04:42:26;3.4;2.8;2.6
61879;PMS7003;47817;52.798;27.544;2023-06-26T04:47:42;3.6;3.6;2.8
61879;PMS7003;47817;52.798;27.544;2023-06-26T04:52:02;4.6;4.6;4
61879;PMS7003;47817;52.798;27.544;2023-06-26T04:57:42;5.3;4;3
61879;PMS7003;47817;52.798;27.544;2023-06-26T05:02:02;4.8;3.8;3.2
61879;PMS7003;47817;52.798;27.544;2023-06-26T05:07:43;7.4;5.4;4.6
61879;PMS7003;47817;52.798;27.544;2023-06-26T05:12:34;5.8;4.4;3.6
61879;PMS7003;47817;52.798;27.544;2023-06-26T05:17:26;4.6;4;3.2
61879;PMS7003;47817;52.798;27.544;2023-06-26T05:22:08;5.8;5.2;4.4
61879;PMS7003;47817;52.798;27.544;2023-06-26T05:26:52;5;4.2;3.8
61879;PMS7003;47817;52.798;27.544;2023-06-26T05:32:42;4.8;4;4
61879;PMS7003;47817;52.798;27.544;2023-06-26T05:37:20;5;4;3
61879;PMS7003;47817;52.798;27.544;2023-06-26T05:42:16;3.6;2.8;2.4
61879;PMS7003;47817;52.798;27.544;2023-06-26T05:47:42;2.6;1.6;1.6
61879;PMS7003;47817;52.798;27.544;2023-06-26T05:52:42;2.2;2;1.8
61879;PMS7003;47817;52.798;27.544;2023-06-26T05:57:18;3;2.8;2.4
61879;PMS7003;47817;52.798;27.544;2023-06-26T06:01:52;2.6;2.2;1.8
61879;PMS7003;47817;52.798;27.544;2023-06-26T06:07:35;2.8;2.2;1.8
61879;PMS7003;47817;52.798;27.544;2023-06-26T06:12:34;2.4;2;1.6
61879;PMS7003;47817;52.798;27.544;2023-06-26T06:17:14;2.8;1.6;1.4
61879;PMS7003;47817;52.798;27.544;2023-06-26T06:21:52;2.8;2;1.8
61879;PMS7003;47817;52.798;27.544;2023-06-26T06:27:40;3.8;2.8;2
61879;PMS7003;47817;52.798;27.544;2023-06-26T06:32:02;3.6;2.8;2.4
61879;PMS7003;47817;52.798;27.544;2023-06-26T06:37:18;3.8;3.2;2.6
61879;PMS7003;47817;52.798;27.544;2023-06-26T06:42:40;3.4;3.4;2.8
61879;PMS7003;47817;52.798;27.544;2023-06-26T06:46:54;3.2;2.6;2
61879;PMS7003;47817;52.798;27.544;2023-06-26T06:52:16;2.8;2.2;1.8
61879;PMS7003;47817;52.798;27.544;2023-06-26T06:56:52;3;2.6;2.2
61879;PMS7003;47817;52.798;27.544;2023-06-26T07:01:52;3.3;3;2.5
61879;PMS7003;47817;52.798;27.544;2023-06-26T07:07:08;4;2.8;2.4
61879;PMS7003;47817;52.798;27.544;2023-06-26T07:12:08;3.8;3.6;2.8
61879;PMS7003;47817;52.798;27.544;2023-06-26T07:17:42;3.8;3.4;3
61879;PMS7003;47817;52.798;27.544;2023-06-26T07:22:24;5.4;4.2;3.4
61879;PMS7003;47817;52.798;27.544;2023-06-26T07:27:26;4.4;4.2;3.4
61879;PMS7003;47817;52.798;27.544;2023-06-26T07:31:52;4;3.8;3
61879;PMS7003;47817;52.798;27.544;2023-06-26T07:37:02;5.2;4.4;3.2
61879;PMS7003;47817;52.798;27.544;2023-06-26T07:41:52;6;4.2;3.4
61879;PMS7003;47817;52.798;27.544;2023-06-26T07:47:18;3.4;2.8;2
61879;PMS7003;47817;52.798;27.544;2023-06-26T07:51:52;3.2;2.8;2.8
61879;PMS7003;47817;52.798;27.544;2023-06-26T07:57:24;4;3.6;3.2
61879;PMS7003;47817;52.798;27.544;2023-06-26T08:02:24;3.8;3.8;2.8
61879;PMS7003;47817;52.798;27.544;2023-06-26T08:06:53;3.4;3.2;2.4
61879;PMS7003;47817;52.798;27.544;2023-06-26T08:11:52;3.4;3;2.6
61879;PMS7003;47817;52.798;27.544;2023-06-26T08:17:42;3.8;2.8;2.2
61879;PMS7003;47817;52.798;27.544;2023-06-26T08:22:42;4.5;3.8;3
61879;PMS7003;47817;52.798;27.544;2023-06-26T08:27:14;4.2;3.8;3.2
61879;PMS7003;47817;52.798;27.544;2023-06-26T08:32:24;3.6;3.2;2.8
61879;PMS7003;47817;52.798;27.544;2023-06-26T08:37:41;3.6;3.6;2.8
61879;PMS7003;47817;52.798;27.544;2023-06-26T08:41:52;4.5;4.3;3.5
61879;PMS7003;47817;52.798;27.544;2023-06-26T08:46:52;4.4;4;3.2
61879;PMS7003;47817;52.798;27.544;2023-06-26T08:52:28;4.6;3.8;3.6
61879;PMS7003;47817;52.798;27.544;2023-06-26T08:57:38;4.4;3.4;2.6
61879;PMS7003;47817;52.798;27.544;2023-06-26T09:02:38;4;2.8;2.4
61879;PMS7003;47817;52.798;27.544;2023-06-26T09:07:06;3;2.6;2.4
61879;PMS7003;47817;52.798;27.544;2023-06-26T09:12:40;4.4;2.8;2.6
61879;PMS7003;47817;52.798;27.544;2023-06-26T09:17:39;2.8;2.4;2
61879;PMS7003;47817;52.798;27.544;2023-06-26T09:21:52;3.4;2.6;2
61879;PMS7003;47817;52.798;27.544;2023-06-26T09:27:18;3.4;2.8;2.4
61879;PMS7003;47817;52.798;27.544;2023-06-26T09:32:08;3.4;1.8;1.6
61879;PMS7003;47817;52.798;27.544;2023-06-26T09:37:33;3;2;1.8
61879;PMS7003;47817;52.798;27.544;2023-06-26T09:42:24;2.2;2;1.6
61879;PMS7003;47817;52.798;27.544;2023-06-26T09:47:40;1.6;1.4;1
61879;PMS7003;47817;52.798;27.544;2023-06-26T09:52:01;2;1.4;1.2
61879;PMS7003;47817;52.798;27.544;2023-06-26T09:57:39;3;2.4;2
61879;PMS7003;47817;52.798;27.544;2023-06-26T10:02:16;2;1.2;0.6
61879;PMS7003;47817;52.798;27.544;2023-06-26T10:07:38;1.8;1.6;0.8
61879;PMS7003;47817;52.798;27.544;2023-06-26T10:12:30;0.6;0.4;0.4
61879;PMS7003;47817;52.798;27.544;2023-06-26T10:17:25;1.4;1;0.8
61879;PMS7003;47817;52.798;27.544;2023-06-26T10:21:53;1.6;0.8;0.8
61879;PMS7003;47817;52.798;27.544;2023-06-26T10:27:08;2;1.4;0.8
61879;PMS7003;47817;52.798;27.544;2023-06-26T10:32:40;0.8;0.5;0.5
61879;PMS7003;47817;52.798;27.544;2023-06-26T10:36:58;2.3;1.5;1.3
61879;PMS7003;47817;52.798;27.544;2023-06-26T10:42:15;2;1.4;0.6
61879;PMS7003;47817;52.798;27.544;2023-06-26T10:47:41;2;1.6;0.8
61879;PMS7003;47817;52.798;27.544;2023-06-26T10:52:40;2.2;2;1.6
61879;PMS7003;47817;52.798;27.544;2023-06-26T10:56:54;9;8;6
61879;PMS7003;47817;52.798;27.544;2023-06-26T11:02:01;3;2.6;2.2
61879;PMS7003;47817;52.798;27.544;2023-06-26T11:07:32;2.4;1.6;1.2
61879;PMS7003;47817;52.798;27.544;2023-06-26T11:12:34;1.8;1.6;1.4
61879;PMS7003;47817;52.798;27.544;2023-06-26T11:17:12;2.4;1.8;1.6
61879;PMS7003;47817;52.798;27.544;2023-06-26T11:22:06;2.6;2.4;2
61879;PMS7003;47817;52.798;27.544;2023-06-26T11:27:39;1.2;1.2;0.8
61879;PMS7003;47817;52.798;27.544;2023-06-26T11:32:01;2.2;1.6;1
61879;PMS7003;47817;52.798;27.544;2023-06-26T11:37:16;1.8;1.2;1
61879;PMS7003;47817;52.798;27.544;2023-06-26T11:42:43;2.5;2;1.5
61879;PMS7003;47817;52.798;27.544;2023-06-26T11:47:34;1.8;1.2;1
61879;PMS7003;47817;52.798;27.544;2023-06-26T11:52:43;2;1.4;1.2
61879;PMS7003;47817;52.798;27.544;2023-06-26T11:56:53;2.4;1.8;1.6
61879;PMS7003;47817;52.798;27.544;2023-06-26T12:01:52;2.4;2.2;1.6
61879;PMS7003;47817;52.798;27.544;2023-06-26T12:07:03;2;1.6;1.6
61879;PMS7003;47817;52.798;27.544;2023-06-26T12:12:09;1.6;1.6;1.2
61879;PMS7003;47817;52.798;27.544;2023-06-26T12:17:37;2.2;1.6;1
61879;PMS7003;47817;52.798;27.544;2023-06-26T12:22:26;3.4;2.2;1.4
61879;PMS7003;47817;52.798;27.544;2023-06-26T12:27:25;2;1.5;1.3
61879;PMS7003;47817;52.798;27.544;2023-06-26T12:32:09;2;2;1.6
61879;PMS7003;47817;52.798;27.544;2023-06-26T12:36:53;3;2;1.8
61879;PMS7003;47817;52.798;27.544;2023-06-26T12:42:43;1.6;1.6;1.2
61879;PMS7003;47817;52.798;27.544;2023-06-26T12:47:43;4.4;3;2
61879;PMS7003;47817;52.798;27.544;2023-06-26T12:52:07;5.4;3.2;2.6
61879;PMS7003;47817;52.798;27.544;2023-06-26T12:57:25;3.8;2.8;2.3
61879;PMS7003;47817;52.798;27.544;2023-06-26T13:02:43;3.8;3;2.2
61879;PMS7003;47817;52.798;27.544;2023-06-26T13:06:53;4;2.8;2.4
61879;PMS7003;47817;52.798;27.544;2023-06-26T13:12:03;4.4;3.6;3.6
61879;PMS7003;47817;52.798;27.544;2023-06-26T13:17:27;3.6;3.4;3
61879;PMS7003;47817;52.798;27.544;2023-06-26T13:22:43;5;3.8;3
61879;PMS7003;47817;52.798;27.544;2023-06-26T13:27:43;4.4;3.8;3.6
61879;PMS7003;47817;52.798;27.544;2023-06-26T13:32:09;4.4;3.4;3
61879;PMS7003;47817;52.798;27.544;2023-06-26T13:37:43;3.6;3;2.6
61879;PMS7003;47817;52.798;27.544;2023-06-26T13:42:11;2.2;1.6;1.6
61879;PMS7003;47817;52.798;27.544;2023-06-26T13:46:53;2;1.5;1.3
61879;PMS7003;47817;52.798;27.544;2023-06-26T13:52:21;2.4;1.6;1.2
61879;PMS7003;47817;52.798;27.544;2023-06-26T13:57:25;3;2;2
61879;PMS7003;47817;52.798;27.544;2023-06-26T14:02:35;2.6;1.8;1.4
61879;PMS7003;47817;52.798;27.544;2023-06-26T14:07:27;1;1;0.8
61879;PMS7003;47817;52.798;27.544;2023-06-26T14:12:43;1;0.8;0.6
61879;PMS7003;47817;52.798;27.544;2023-06-26T14:17:03;0.8;0.6;0.2
61879;PMS7003;47817;52.798;27.544;2023-06-26T14:22:21;1;0.2;0.2
61879;PMS7003;47817;52.798;27.544;2023-06-26T14:27:35;1;0.4;0.2
61879;PMS7003;47817;52.798;27.544;2023-06-26T14:32:43;1;1;0.8
61879;PMS7003;47817;52.798;27.544;2023-06-26T14:37:19;1.4;1;0.8
61879;PMS7003;47817;52.798;27.544;2023-06-26T14:42:27;3.6;3.2;2.4
61879;PMS7003;47817;52.798;27.544;2023-06-26T14:46:53;1;0.6;0.4
61879;PMS7003;47817;52.798;27.544;2023-06-26T14:52:15;2;1.8;1
61879;PMS7003;47817;52.798;27.544;2023-06-26T14:57:43;1.4;1.2;1
61879;PMS7003;47817;52.798;27.544;2023-06-26T15:02:27;2.6;2;1.6
61879;PMS7003;47817;52.798;27.544;2023-06-26T15:07:03;1.4;1.2;0.8
61879;PMS7003;47817;52.798;27.544;2023-06-26T15:12:43;1.8;1.8;1.2
61879;PMS7003;47817;52.798;27.544;2023-06-26T15:17:43;1.8;1.6;1
61879;PMS7003;47817;52.798;27.544;2023-06-26T15:21:53;1.2;1.2;0.8
61879;PMS7003;47817;52.798;27.544;2023-06-26T15:27:09;1.2;0.8;0.6
61879;PMS7003;47817;52.798;27.544;2023-06-26T15:32:35;0.6;0.6;0.4
61879;PMS7003;47817;52.798;27.544;2023-06-26T15:37:35;0.8;0.6;0.6
61879;PMS7003;47817;52.798;27.544;2023-06-26T15:42:17;0.8;0.4;0.2
61879;PMS7003;47817;52.798;27.544;2023-06-26T15:46:59;0.6;0.6;0.6
61879;PMS7003;47817;52.798;27.544;2023-06-26T15:52:44;1.3;0.8;0.5
61879;PMS7003;47817;52.798;27.544;2023-06-26T15:57:03;1;0.6;0.4
61879;PMS7003;47817;52.798;27.544;2023-06-26T16:02:19;0.8;0.8;0.8
61879;PMS7003;47817;52.798;27.544;2023-06-26T16:07:43;1.4;1.2;0.8
61879;PMS7003;47817;52.798;27.544;2023-06-26T16:12:25;2.3;2.3;2
61879;PMS7003;47817;52.798;27.544;2023-06-26T16:17:43;2;2;1.8
61879;PMS7003;47817;52.798;27.544;2023-06-26T16:22:09;2.2;1.4;1
61879;PMS7003;47817;52.798;27.544;2023-06-26T16:27:03;1.2;1.2;1
61879;PMS7003;47817;52.798;27.544;2023-06-26T16:31:53;1.8;1.2;1
61879;PMS7003;47817;52.798;27.544;2023-06-26T16:37:19;1.6;1.2;1
61879;PMS7003;47817;52.798;27.544;2023-06-26T16:42:17;1.6;1.4;1
61879;PMS7003;47817;52.798;27.544;2023-06-26T16:47:25;1.8;0.6;0.4
61879;PMS7003;47817;52.798;27.544;2023-06-26T16:52:25;1.6;1.4;0.8
61879;PMS7003;47817;52.798;27.544;2023-06-26T16:56:53;1;0.8;0.5
61879;PMS7003;47817;52.798;27.544;2023-06-26T17:01:53;2.6;1.6;1
61879;PMS7003;47817;52.798;27.544;2023-06-26T17:07:43;3;2.2;1.8
61879;PMS7003;47817;52.798;27.544;2023-06-26T17:12:43;2.6;2;1.4
61879;PMS7003;47817;52.798;27.544;2023-06-26T17:17:41;2.2;1.8;1.2
61879;PMS7003;47817;52.798;27.544;2023-06-26T17:22:23;2.2;2;1.2
61879;PMS7003;47817;52.798;27.544;2023-06-26T17:27:43;3.2;2.6;2
61879;PMS7003;47817;52.798;27.544;2023-06-26T17:32:03;2.8;2.4;1.8
61879;PMS7003;47817;52.798;27.544;2023-06-26T17:36:53;3;2.6;2
61879;PMS7003;47817;52.798;27.544;2023-06-26T17:42:27;3.8;3.2;2.8
61879;PMS7003;47817;52.798;27.544;2023-06-26T17:47:45;3;2.6;2
61879;PMS7003;47817;52.798;27.544;2023-06-26T17:52:45;2.8;2.4;1.8
61879;PMS7003;47817;52.798;27.544;2023-06-26T17:57:03;3;2.5;2.3
61879;PMS7003;47817;52.798;27.544;2023-06-26T18:02:43;2.6;2.6;2
61879;PMS7003;47817;52.798;27.544;2023-06-26T18:06:53;2.8;2.8;2
61879;PMS7003;47817;52.798;27.544;2023-06-26T18:12:03;3.8;3;2.4
61879;PMS7003;47817;52.798;27.544;2023-06-26T18:17:29;3.8;2.6;2
61879;PMS7003;47817;52.798;27.544;2023-06-26T18:22:27;3.4;3;2.8
61879;PMS7003;47817;52.798;27.544;2023-06-26T18:27:45;2.4;2;1.8
61879;PMS7003;47817;52.798;27.544;2023-06-26T18:32:21;1.8;1.8;1.5
61879;PMS7003;47817;52.798;27.544;2023-06-26T18:37:45;4;3;2.4
61879;PMS7003;47817;52.798;27.544;2023-06-26T18:41:53;3;2.6;2
61879;PMS7003;47817;52.798;27.544;2023-06-26T18:47:43;2.8;2.4;2.2
61879;PMS7003;47817;52.798;27.544;2023-06-26T18:51:53;3;2.6;2
61879;PMS7003;47817;52.798;27.544;2023-06-26T18:57:43;5;4;3.3
61879;PMS7003;47817;52.798;27.544;2023-06-26T19:02:31;4.4;4.4;3.4
61879;PMS7003;47817;52.798;27.544;2023-06-26T19:07:27;3.8;2.8;2.4
61879;PMS7003;47817;52.798;27.544;2023-06-26T19:11:53;4.8;4;3.4
61879;PMS7003;47817;52.798;27.544;2023-06-26T19:16:53;4.6;4.4;4
61879;PMS7003;47817;52.798;27.544;2023-06-26T19:22:45;4.4;4;3.2
61879;PMS7003;47817;52.798;27.544;2023-06-26T19:26:53;3.8;3.2;2.8
61879;PMS7003;47817;52.798;27.544;2023-06-26T19:31:54;2.8;2.8;2.4
61879;PMS7003;47817;52.798;27.544;2023-06-26T19:37:31;4;3.2;2.8
61879;PMS7003;47817;52.798;27.544;2023-06-26T19:42:43;4.6;3.2;2.4
61879;PMS7003;47817;52.798;27.544;2023-06-26T19:46:53;4;3.6;2.8
61879;PMS7003;47817;52.798;27.544;2023-06-26T19:51:53;4;3.3;3
61879;PMS7003;47817;52.798;27.544;2023-06-26T19:57:05;3.8;3.2;2.6
61879;PMS7003;47817;52.798;27.544;2023-06-26T20:02:35;2.8;2.6;2.2
61879;PMS7003;47817;52.798;27.544;2023-06-26T20:07:17;2.6;2.6;2.4
61879;PMS7003;47817;52.798;27.544;2023-06-26T20:12:11;3.8;3.2;2.4
61879;PMS7003;47817;52.798;27.544;2023-06-26T20:16:53;3.6;3.2;2.4
61879;PMS7003;47817;52.798;27.544;2023-06-26T20:21:53;3.6;2.8;2.8
61879;PMS7003;47817;52.798;27.544;2023-06-26T20:27:19;3;3;2.8
61879;PMS7003;47817;52.798;27.544;2023-06-26T20:32:45;3.6;3;2.4
61879;PMS7003;47817;52.798;27.544;2023-06-26T20:37:25;4.6;3.8;3.2
61879;PMS7003;47817;52.798;27.544;2023-06-26T20:42:43;3.4;2.8;2.6
61879;PMS7003;47817;52.798;27.544;2023-06-26T20:47:11;2.8;2.4;2.2
61879;PMS7003;47817;52.798;27.544;2023-06-26T20:51:54;3.2;2.6;2.2
61879;PMS7003;47817;52.798;27.544;2023-06-26T20:56:53;3;3;2.4
61879;PMS7003;47817;52.798;27.544;2023-06-26T21:07:15;2.7;2.7;2.7
61879;PMS7003;47817;52.798;27.544;2023-06-26T21:12:17;5.6;4;3.4
61879;PMS7003;47817;52.798;27.544;2023-06-26T21:17:25;4;3.8;3
61879;PMS7003;47817;52.798;27.544;2023-06-26T21:22:11;3.8;3.4;2.8
61879;PMS7003;47817;52.798;27.544;2023-06-26T21:27:01;4.4;2.8;2.4
61879;PMS7003;47817;52.798;27.544;2023-06-26T21:32:45;2.8;2.6;2.2
61879;PMS7003;47817;52.798;27.544;2023-06-26T21:37:43;3.8;3.2;2.2
61879;PMS7003;47817;52.798;27.544;2023-06-26T21:42:05;4.2;2.2;2.2
61879;PMS7003;47817;52.798;27.544;2023-06-26T21:47:17;4.3;3.5;2.5
61879;PMS7003;47817;52.798;27.544;2023-06-26T21:52:41;3.4;3.2;2.4
61879;PMS7003;47817;52.798;27.544;2023-06-26T21:56:53;4.2;2.8;2.2
61879;PMS7003;47817;52.798;27.544;2023-06-26T22:01:53;3.8;3;2
61879;PMS7003;47817;52.798;27.544;2023-06-26T22:07:29;2.8;1.8;1.8
61879;PMS7003;47817;52.798;27.544;2023-06-26T22:12:43;3;2;1.8
61879;PMS7003;47817;52.798;27.544;2023-06-26T22:17:46;4;2.4;2
61879;PMS7003;47817;52.798;27.544;2023-06-26T22:22:03;3.3;2;1.8
61879;PMS7003;47817;52.798;27.544;2023-06-26T22:27:46;3;2.4;2
61879;PMS7003;47817;52.798;27.544;2023-06-26T22:31:53;2.4;2.2;1.8
61879;PMS7003;47817;52.798;27.544;2023-06-26T22:36:53;2.6;2.4;2
61879;PMS7003;47817;52.798;27.544;2023-06-26T22:42:29;3.6;2.6;2.4
61879;PMS7003;47817;52.798;27.544;2023-06-26T22:47:05;3.2;2.8;2
61879;PMS7003;47817;52.798;27.544;2023-06-26T22:52:35;2.8;2.2;1.6
61879;PMS7003;47817;52.798;27.544;2023-06-26T22:57:29;3.2;2.8;2
61879;PMS7003;47817;52.798;27.544;2023-06-26T23:02:45;3.2;3;2.2
61879;PMS7003;47817;52.798;27.544;2023-06-26T23:06:53;3;2.8;2.3
61879;PMS7003;47817;52.798;27.544;2023-06-26T23:12:45;3;2.6;2.2
61879;PMS7003;47817;52.798;27.544;2023-06-26T23:17:03;4.2;2.8;2.2
61879;PMS7003;47817;52.798;27.544;2023-06-26T23:22:45;3.2;2.8;2.2
61879;PMS7003;47817;52.798;27.544;2023-06-26T23:27:35;3.4;3;2.4
61879;PMS7003;47817;52.798;27.544;2023-06-26T23:32:11;3.8;3.4;2
61879;PMS7003;47817;52.798;27.544;2023-06-26T23:36:53;3.6;2.8;2.2
61879;PMS7003;47817;52.798;27.544;2023-06-26T23:42:03;4.2;3;2
61879;PMS7003;47817;52.798;27.544;2023-06-26T23:47:35;3.6;2.6;2
61879;PMS7003;47817;52.798;27.544;2023-06-26T23:52:19;3;2.8;2
61879;PMS7003;47817;52.798;27.544;2023-06-26T23:57:17;4.5;2.8;2.5
